sensor_id;sensor_type;location;lat;lon;timestamp;P1;durP1;ratioP1;P2;durP2;ratioP2
13487;SDS011;6816;48.506;9.050;2022-12-10T00:01:17;20.47;;;12.80;;
13487;SDS011;6816;48.506;9.050;2022-12-10T00:04:19;22.60;;;13.43;;
13487;SDS011;6816;48.506;9.050;2022-12-10T00:07:20;23.83;;;14.50;;
13487;SDS011;6816;48.506;9.050;2022-12-10T00:10:20;26.13;;;15.07;;
13487;SDS011;6816;48.506;9.050;2022-12-10T00:13:21;26.70;;;14.07;;
13487;SDS011;6816;48.506;9.050;2022-12-10T00:16:23;19.53;;;12.90;;
13487;SDS011;6816;48.506;9.050;2022-12-10T00:19:25;22.30;;;14.50;;
13487;SDS011;6816;48.506;9.050;2022-12-10T00:22:25;26.00;;;14.70;;
13487;SDS011;6816;48.506;9.050;2022-12-10T00:25:26;27.30;;;15.27;;
13487;SDS011;6816;48.506;9.050;2022-12-10T00:28:26;25.23;;;15.57;;
13487;SDS011;6816;48.506;9.050;2022-12-10T00:31:28;26.00;;;15.57;;
13487;SDS011;6816;48.506;9.050;2022-12-10T00:34:30;27.53;;;15.60;;
13487;SDS011;6816;48.506;9.050;2022-12-10T00:37:32;24.20;;;15.03;;
13487;SDS011;6816;48.506;9.050;2022-12-10T00:40:33;25.67;;;15.50;;
13487;SDS011;6816;48.506;9.050;2022-12-10T00:43:34;28.40;;;15.27;;
13487;SDS011;6816;48.506;9.050;2022-12-10T00:46:34;21.90;;;14.60;;
13487;SDS011;6816;48.506;9.050;2022-12-10T00:49:35;19.83;;;12.20;;
13487;SDS011;6816;48.506;9.050;2022-12-10T00:52:36;23.13;;;14.13;;
13487;SDS011;6816;48.506;9.050;2022-12-10T00:55:36;24.37;;;13.30;;
13487;SDS011;6816;48.506;9.050;2022-12-10T00:58:37;22.90;;;13.90;;
13487;SDS011;6816;48.506;9.050;2022-12-10T01:01:39;22.20;;;13.93;;
13487;SDS011;6816;48.506;9.050;2022-12-10T01:04:41;21.57;;;14.07;;
13487;SDS011;6816;48.506;9.050;2022-12-10T01:07:42;26.27;;;14.83;;
13487;SDS011;6816;48.506;9.050;2022-12-10T01:10:42;22.17;;;13.90;;
13487;SDS011;6816;48.506;9.050;2022-12-10T01:13:45;22.30;;;14.10;;
13487;SDS011;6816;48.506;9.050;2022-12-10T01:16:46;23.00;;;14.67;;
13487;SDS011;6816;48.506;9.050;2022-12-10T01:19:47;17.53;;;12.13;;
13487;SDS011;6816;48.506;9.050;2022-12-10T01:22:47;21.43;;;13.40;;
13487;SDS011;6816;48.506;9.050;2022-12-10T01:25:48;22.83;;;13.83;;
13487;SDS011;6816;48.506;9.050;2022-12-10T01:28:49;21.23;;;13.37;;
13487;SDS011;6816;48.506;9.050;2022-12-10T01:31:51;19.23;;;12.63;;
13487;SDS011;6816;48.506;9.050;2022-12-10T01:34:53;16.83;;;12.03;;
13487;SDS011;6816;48.506;9.050;2022-12-10T01:37:54;18.50;;;13.20;;
13487;SDS011;6816;48.506;9.050;2022-12-10T01:40:54;21.97;;;13.20;;
13487;SDS011;6816;48.506;9.050;2022-12-10T01:43:57;23.13;;;12.93;;
13487;SDS011;6816;48.506;9.050;2022-12-10T01:47:03;26.30;;;15.83;;
13487;SDS011;6816;48.506;9.050;2022-12-10T01:50:04;21.87;;;14.57;;
13487;SDS011;6816;48.506;9.050;2022-12-10T01:53:06;23.17;;;14.10;;
13487;SDS011;6816;48.506;9.050;2022-12-10T01:56:08;22.57;;;13.93;;
13487;SDS011;6816;48.506;9.050;2022-12-10T01:59:10;22.00;;;13.67;;
13487;SDS011;6816;48.506;9.050;2022-12-10T02:05:41;20.03;;;13.03;;
13487;SDS011;6816;48.506;9.050;2022-12-10T02:12:15;26.83;;;14.67;;
13487;SDS011;6816;48.506;9.050;2022-12-10T02:15:19;26.07;;;15.40;;
13487;SDS011;6816;48.506;9.050;2022-12-10T02:21:50;26.47;;;15.17;;
13487;SDS011;6816;48.506;9.050;2022-12-10T02:24:53;24.60;;;14.70;;
13487;SDS011;6816;48.506;9.050;2022-12-10T02:28:08;26.93;;;15.27;;
13487;SDS011;6816;48.506;9.050;2022-12-10T02:31:17;25.97;;;15.30;;
13487;SDS011;6816;48.506;9.050;2022-12-10T02:34:21;27.57;;;15.20;;
13487;SDS011;6816;48.506;9.050;2022-12-10T02:37:27;29.80;;;16.57;;
13487;SDS011;6816;48.506;9.050;2022-12-10T02:40:35;27.30;;;16.00;;
13487;SDS011;6816;48.506;9.050;2022-12-10T02:43:39;26.73;;;16.00;;
13487;SDS011;6816;48.506;9.050;2022-12-10T02:46:41;26.40;;;15.83;;
13487;SDS011;6816;48.506;9.050;2022-12-10T02:49:44;26.17;;;15.90;;
13487;SDS011;6816;48.506;9.050;2022-12-10T02:52:49;25.67;;;15.60;;
13487;SDS011;6816;48.506;9.050;2022-12-10T02:59:35;28.37;;;17.43;;
13487;SDS011;6816;48.506;9.050;2022-12-10T03:06:22;26.20;;;14.70;;
13487;SDS011;6816;48.506;9.050;2022-12-10T03:09:46;26.57;;;15.77;;
13487;SDS011;6816;48.506;9.050;2022-12-10T03:12:57;25.10;;;15.23;;
13487;SDS011;6816;48.506;9.050;2022-12-10T03:16:00;25.03;;;14.70;;
13487;SDS011;6816;48.506;9.050;2022-12-10T03:19:06;27.50;;;16.47;;
13487;SDS011;6816;48.506;9.050;2022-12-10T03:22:12;29.07;;;17.43;;
13487;SDS011;6816;48.506;9.050;2022-12-10T03:25:15;26.07;;;15.77;;
13487;SDS011;6816;48.506;9.050;2022-12-10T03:28:19;27.03;;;16.17;;
13487;SDS011;6816;48.506;9.050;2022-12-10T03:31:22;26.40;;;16.97;;
13487;SDS011;6816;48.506;9.050;2022-12-10T03:34:23;24.70;;;16.10;;
13487;SDS011;6816;48.506;9.050;2022-12-10T03:37:25;25.57;;;15.43;;
13487;SDS011;6816;48.506;9.050;2022-12-10T03:40:27;28.10;;;16.70;;
13487;SDS011;6816;48.506;9.050;2022-12-10T03:43:28;24.53;;;15.53;;
13487;SDS011;6816;48.506;9.050;2022-12-10T03:46:29;27.07;;;16.37;;
13487;SDS011;6816;48.506;9.050;2022-12-10T03:49:31;23.53;;;15.53;;
13487;SDS011;6816;48.506;9.050;2022-12-10T03:52:32;23.10;;;14.93;;
13487;SDS011;6816;48.506;9.050;2022-12-10T03:55:32;22.73;;;14.53;;
13487;SDS011;6816;48.506;9.050;2022-12-10T03:58:33;24.40;;;15.20;;
13487;SDS011;6816;48.506;9.050;2022-12-10T04:01:34;24.60;;;16.10;;
13487;SDS011;6816;48.506;9.050;2022-12-10T04:04:34;26.83;;;15.23;;
13487;SDS011;6816;48.506;9.050;2022-12-10T04:07:35;22.67;;;14.23;;
13487;SDS011;6816;48.506;9.050;2022-12-10T04:10:38;24.63;;;13.97;;
13487;SDS011;6816;48.506;9.050;2022-12-10T04:13:39;23.87;;;15.10;;
13487;SDS011;6816;48.506;9.050;2022-12-10T04:16:59;23.20;;;14.33;;
13487;SDS011;6816;48.506;9.050;2022-12-10T04:20:00;22.83;;;13.77;;
13487;SDS011;6816;48.506;9.050;2022-12-10T04:23:00;18.27;;;12.80;;
13487;SDS011;6816;48.506;9.050;2022-12-10T04:26:19;23.77;;;14.17;;
13487;SDS011;6816;48.506;9.050;2022-12-10T04:29:38;22.73;;;13.33;;
13487;SDS011;6816;48.506;9.050;2022-12-10T04:32:39;25.23;;;13.90;;
13487;SDS011;6816;48.506;9.050;2022-12-10T04:35:40;24.27;;;15.07;;
13487;SDS011;6816;48.506;9.050;2022-12-10T04:38:40;28.90;;;17.00;;
13487;SDS011;6816;48.506;9.050;2022-12-10T04:41:41;25.03;;;15.17;;
13487;SDS011;6816;48.506;9.050;2022-12-10T04:44:43;24.10;;;15.33;;
13487;SDS011;6816;48.506;9.050;2022-12-10T04:47:44;29.57;;;16.10;;
13487;SDS011;6816;48.506;9.050;2022-12-10T04:50:45;25.37;;;14.53;;
13487;SDS011;6816;48.506;9.050;2022-12-10T04:53:46;25.93;;;15.23;;
13487;SDS011;6816;48.506;9.050;2022-12-10T04:56:47;26.67;;;15.90;;
13487;SDS011;6816;48.506;9.050;2022-12-10T04:59:47;24.37;;;15.27;;
13487;SDS011;6816;48.506;9.050;2022-12-10T05:02:48;23.20;;;15.07;;
13487;SDS011;6816;48.506;9.050;2022-12-10T05:05:49;24.00;;;15.20;;
13487;SDS011;6816;48.506;9.050;2022-12-10T05:08:50;26.40;;;15.07;;
13487;SDS011;6816;48.506;9.050;2022-12-10T05:11:50;21.13;;;12.93;;
13487;SDS011;6816;48.506;9.050;2022-12-10T05:14:51;28.50;;;15.07;;
13487;SDS011;6816;48.506;9.050;2022-12-10T05:17:52;23.40;;;13.83;;
13487;SDS011;6816;48.506;9.050;2022-12-10T05:20:52;29.27;;;16.20;;
13487;SDS011;6816;48.506;9.050;2022-12-10T05:23:53;28.20;;;16.33;;
13487;SDS011;6816;48.506;9.050;2022-12-10T05:26:53;25.90;;;15.37;;
13487;SDS011;6816;48.506;9.050;2022-12-10T05:29:54;27.03;;;16.60;;
13487;SDS011;6816;48.506;9.050;2022-12-10T05:32:55;22.53;;;14.97;;
13487;SDS011;6816;48.506;9.050;2022-12-10T05:36:04;24.57;;;15.50;;
13487;SDS011;6816;48.506;9.050;2022-12-10T05:39:05;27.97;;;15.73;;
13487;SDS011;6816;48.506;9.050;2022-12-10T05:42:07;24.03;;;14.20;;
13487;SDS011;6816;48.506;9.050;2022-12-10T05:45:07;24.67;;;15.10;;
13487;SDS011;6816;48.506;9.050;2022-12-10T05:48:09;26.93;;;15.33;;
13487;SDS011;6816;48.506;9.050;2022-12-10T05:51:11;25.57;;;15.90;;
13487;SDS011;6816;48.506;9.050;2022-12-10T05:54:14;25.83;;;15.97;;
13487;SDS011;6816;48.506;9.050;2022-12-10T05:57:14;26.13;;;15.73;;
13487;SDS011;6816;48.506;9.050;2022-12-10T06:00:15;23.30;;;14.87;;
13487;SDS011;6816;48.506;9.050;2022-12-10T06:03:16;30.07;;;15.23;;
13487;SDS011;6816;48.506;9.050;2022-12-10T06:06:23;22.90;;;14.70;;
13487;SDS011;6816;48.506;9.050;2022-12-10T06:09:26;22.27;;;15.10;;
13487;SDS011;6816;48.506;9.050;2022-12-10T06:12:26;23.03;;;15.00;;
13487;SDS011;6816;48.506;9.050;2022-12-10T06:15:27;23.33;;;14.43;;
13487;SDS011;6816;48.506;9.050;2022-12-10T06:18:27;22.93;;;15.03;;
13487;SDS011;6816;48.506;9.050;2022-12-10T06:21:28;21.63;;;15.33;;
13487;SDS011;6816;48.506;9.050;2022-12-10T06:24:29;19.97;;;14.17;;
13487;SDS011;6816;48.506;9.050;2022-12-10T06:27:30;19.50;;;13.57;;
13487;SDS011;6816;48.506;9.050;2022-12-10T06:30:31;20.27;;;13.73;;
13487;SDS011;6816;48.506;9.050;2022-12-10T06:33:32;22.67;;;14.07;;
13487;SDS011;6816;48.506;9.050;2022-12-10T06:36:32;20.77;;;13.27;;
13487;SDS011;6816;48.506;9.050;2022-12-10T06:39:33;20.63;;;13.73;;
13487;SDS011;6816;48.506;9.050;2022-12-10T06:42:34;17.80;;;13.07;;
13487;SDS011;6816;48.506;9.050;2022-12-10T06:45:37;20.63;;;14.80;;
13487;SDS011;6816;48.506;9.050;2022-12-10T06:48:42;18.50;;;13.83;;
13487;SDS011;6816;48.506;9.050;2022-12-10T06:51:43;20.27;;;14.87;;
13487;SDS011;6816;48.506;9.050;2022-12-10T06:54:43;21.97;;;14.67;;
13487;SDS011;6816;48.506;9.050;2022-12-10T06:57:44;18.50;;;14.20;;
13487;SDS011;6816;48.506;9.050;2022-12-10T07:00:45;21.73;;;14.83;;
13487;SDS011;6816;48.506;9.050;2022-12-10T07:03:47;18.17;;;13.50;;
13487;SDS011;6816;48.506;9.050;2022-12-10T07:06:49;19.17;;;13.40;;
13487;SDS011;6816;48.506;9.050;2022-12-10T07:09:50;20.77;;;14.40;;
13487;SDS011;6816;48.506;9.050;2022-12-10T07:12:50;18.97;;;13.77;;
13487;SDS011;6816;48.506;9.050;2022-12-10T07:15:51;17.07;;;13.27;;
13487;SDS011;6816;48.506;9.050;2022-12-10T07:18:52;18.37;;;13.03;;
13487;SDS011;6816;48.506;9.050;2022-12-10T07:21:54;18.20;;;13.73;;
13487;SDS011;6816;48.506;9.050;2022-12-10T07:24:55;18.83;;;13.57;;
13487;SDS011;6816;48.506;9.050;2022-12-10T07:27:55;20.47;;;14.17;;
13487;SDS011;6816;48.506;9.050;2022-12-10T07:31:03;19.03;;;14.63;;
13487;SDS011;6816;48.506;9.050;2022-12-10T07:34:04;20.50;;;14.67;;
13487;SDS011;6816;48.506;9.050;2022-12-10T07:37:06;18.10;;;13.10;;
13487;SDS011;6816;48.506;9.050;2022-12-10T07:40:07;21.07;;;14.30;;
13487;SDS011;6816;48.506;9.050;2022-12-10T07:43:08;16.93;;;13.10;;
13487;SDS011;6816;48.506;9.050;2022-12-10T07:46:10;16.87;;;13.10;;
13487;SDS011;6816;48.506;9.050;2022-12-10T07:49:12;19.77;;;13.73;;
13487;SDS011;6816;48.506;9.050;2022-12-10T07:52:14;18.87;;;13.83;;
13487;SDS011;6816;48.506;9.050;2022-12-10T07:55:14;19.87;;;13.87;;
13487;SDS011;6816;48.506;9.050;2022-12-10T07:58:15;17.60;;;13.73;;
13487;SDS011;6816;48.506;9.050;2022-12-10T08:01:17;16.57;;;13.10;;
13487;SDS011;6816;48.506;9.050;2022-12-10T08:04:22;18.17;;;13.53;;
13487;SDS011;6816;48.506;9.050;2022-12-10T08:07:22;18.00;;;13.80;;
13487;SDS011;6816;48.506;9.050;2022-12-10T08:10:23;20.03;;;13.77;;
13487;SDS011;6816;48.506;9.050;2022-12-10T08:13:24;18.40;;;13.67;;
13487;SDS011;6816;48.506;9.050;2022-12-10T08:16:26;19.00;;;14.07;;
13487;SDS011;6816;48.506;9.050;2022-12-10T08:19:28;19.03;;;13.97;;
13487;SDS011;6816;48.506;9.050;2022-12-10T08:22:29;18.67;;;12.93;;
13487;SDS011;6816;48.506;9.050;2022-12-10T08:25:29;17.37;;;13.50;;
13487;SDS011;6816;48.506;9.050;2022-12-10T08:28:30;17.77;;;13.47;;
13487;SDS011;6816;48.506;9.050;2022-12-10T08:31:30;20.17;;;13.97;;
13487;SDS011;6816;48.506;9.050;2022-12-10T08:34:31;19.13;;;14.10;;
13487;SDS011;6816;48.506;9.050;2022-12-10T08:37:32;18.97;;;14.63;;
13487;SDS011;6816;48.506;9.050;2022-12-10T08:40:32;18.13;;;14.27;;
13487;SDS011;6816;48.506;9.050;2022-12-10T08:43:33;20.80;;;14.70;;
13487;SDS011;6816;48.506;9.050;2022-12-10T08:46:34;15.50;;;12.83;;
13487;SDS011;6816;48.506;9.050;2022-12-10T08:49:35;18.67;;;13.43;;
13487;SDS011;6816;48.506;9.050;2022-12-10T08:52:35;18.07;;;13.70;;
13487;SDS011;6816;48.506;9.050;2022-12-10T08:55:39;18.10;;;14.10;;
13487;SDS011;6816;48.506;9.050;2022-12-10T08:58:40;20.10;;;14.30;;
13487;SDS011;6816;48.506;9.050;2022-12-10T09:01:41;18.73;;;14.50;;
13487;SDS011;6816;48.506;9.050;2022-12-10T09:04:41;16.07;;;13.10;;
13487;SDS011;6816;48.506;9.050;2022-12-10T09:07:42;20.70;;;14.07;;
13487;SDS011;6816;48.506;9.050;2022-12-10T09:10:43;19.27;;;13.27;;
13487;SDS011;6816;48.506;9.050;2022-12-10T09:13:43;19.20;;;14.17;;
13487;SDS011;6816;48.506;9.050;2022-12-10T09:16:44;17.37;;;14.00;;
13487;SDS011;6816;48.506;9.050;2022-12-10T09:19:45;18.47;;;14.47;;
13487;SDS011;6816;48.506;9.050;2022-12-10T09:22:45;18.83;;;13.90;;
13487;SDS011;6816;48.506;9.050;2022-12-10T09:25:46;18.43;;;13.40;;
13487;SDS011;6816;48.506;9.050;2022-12-10T09:28:47;18.63;;;12.70;;
13487;SDS011;6816;48.506;9.050;2022-12-10T09:31:51;17.20;;;14.17;;
13487;SDS011;6816;48.506;9.050;2022-12-10T09:34:52;17.30;;;13.43;;
13487;SDS011;6816;48.506;9.050;2022-12-10T09:37:53;18.03;;;13.37;;
13487;SDS011;6816;48.506;9.050;2022-12-10T09:41:01;20.63;;;14.37;;
13487;SDS011;6816;48.506;9.050;2022-12-10T09:44:22;16.90;;;13.17;;
13487;SDS011;6816;48.506;9.050;2022-12-10T09:47:31;19.30;;;14.43;;
13487;SDS011;6816;48.506;9.050;2022-12-10T09:53:54;20.13;;;14.27;;
13487;SDS011;6816;48.506;9.050;2022-12-10T09:56:59;17.27;;;13.03;;
13487;SDS011;6816;48.506;9.050;2022-12-10T10:00:10;20.30;;;13.90;;
13487;SDS011;6816;48.506;9.050;2022-12-10T10:03:21;16.33;;;13.07;;
13487;SDS011;6816;48.506;9.050;2022-12-10T10:06:21;18.23;;;13.73;;
13487;SDS011;6816;48.506;9.050;2022-12-10T10:09:24;17.63;;;13.47;;
13487;SDS011;6816;48.506;9.050;2022-12-10T10:12:27;20.53;;;14.27;;
13487;SDS011;6816;48.506;9.050;2022-12-10T10:15:32;20.30;;;13.87;;
13487;SDS011;6816;48.506;9.050;2022-12-10T10:18:38;17.93;;;14.43;;
13487;SDS011;6816;48.506;9.050;2022-12-10T10:21:42;17.77;;;12.70;;
13487;SDS011;6816;48.506;9.050;2022-12-10T10:24:45;16.93;;;12.87;;
13487;SDS011;6816;48.506;9.050;2022-12-10T10:27:46;15.53;;;12.70;;
13487;SDS011;6816;48.506;9.050;2022-12-10T10:30:47;16.90;;;13.47;;
13487;SDS011;6816;48.506;9.050;2022-12-10T10:33:49;18.97;;;14.00;;
13487;SDS011;6816;48.506;9.050;2022-12-10T10:36:56;16.90;;;12.50;;
13487;SDS011;6816;48.506;9.050;2022-12-10T10:39:57;17.37;;;13.23;;
13487;SDS011;6816;48.506;9.050;2022-12-10T10:42:58;16.50;;;12.93;;
13487;SDS011;6816;48.506;9.050;2022-12-10T10:46:04;16.50;;;12.33;;
13487;SDS011;6816;48.506;9.050;2022-12-10T10:49:13;17.23;;;12.90;;
13487;SDS011;6816;48.506;9.050;2022-12-10T10:52:16;16.70;;;12.67;;
13487;SDS011;6816;48.506;9.050;2022-12-10T10:55:30;15.57;;;12.17;;
13487;SDS011;6816;48.506;9.050;2022-12-10T10:58:36;14.97;;;11.57;;
13487;SDS011;6816;48.506;9.050;2022-12-10T11:01:54;16.77;;;12.53;;
13487;SDS011;6816;48.506;9.050;2022-12-10T11:05:22;16.43;;;12.20;;
13487;SDS011;6816;48.506;9.050;2022-12-10T11:08:30;15.73;;;12.47;;
13487;SDS011;6816;48.506;9.050;2022-12-10T11:11:35;16.07;;;12.47;;
13487;SDS011;6816;48.506;9.050;2022-12-10T11:14:44;13.87;;;11.00;;
13487;SDS011;6816;48.506;9.050;2022-12-10T11:17:46;14.50;;;11.37;;
13487;SDS011;6816;48.506;9.050;2022-12-10T11:24:02;15.07;;;12.20;;
13487;SDS011;6816;48.506;9.050;2022-12-10T11:27:12;16.67;;;12.57;;
13487;SDS011;6816;48.506;9.050;2022-12-10T11:30:25;16.50;;;13.20;;
13487;SDS011;6816;48.506;9.050;2022-12-10T11:33:32;15.83;;;12.67;;
13487;SDS011;6816;48.506;9.050;2022-12-10T12:00:17;13.47;;;10.47;;
13487;SDS011;6816;48.506;9.050;2022-12-10T12:03:28;12.37;;;10.20;;
13487;SDS011;6816;48.506;9.050;2022-12-10T12:07:02;13.90;;;10.07;;
13487;SDS011;6816;48.506;9.050;2022-12-10T12:17:12;12.60;;;9.67;;
13487;SDS011;6816;48.506;9.050;2022-12-10T12:20:23;10.93;;;8.63;;
13487;SDS011;6816;48.506;9.050;2022-12-10T12:23:31;11.20;;;9.27;;
13487;SDS011;6816;48.506;9.050;2022-12-10T12:26:43;10.90;;;8.57;;
13487;SDS011;6816;48.506;9.050;2022-12-10T12:33:04;11.40;;;8.97;;
13487;SDS011;6816;48.506;9.050;2022-12-10T12:36:14;11.67;;;9.70;;
13487;SDS011;6816;48.506;9.050;2022-12-10T12:42:47;11.70;;;9.53;;
13487;SDS011;6816;48.506;9.050;2022-12-10T12:46:01;12.27;;;9.03;;
13487;SDS011;6816;48.506;9.050;2022-12-10T12:55:41;11.80;;;8.97;;
13487;SDS011;6816;48.506;9.050;2022-12-10T13:05:41;9.00;;;7.70;;
13487;SDS011;6816;48.506;9.050;2022-12-10T13:08:43;9.10;;;7.63;;
13487;SDS011;6816;48.506;9.050;2022-12-10T13:12:32;10.40;;;7.80;;
13487;SDS011;6816;48.506;9.050;2022-12-10T13:15:23;9.37;;;7.60;;
13487;SDS011;6816;48.506;9.050;2022-12-10T13:18:35;11.67;;;9.40;;
13487;SDS011;6816;48.506;9.050;2022-12-10T13:21:46;11.57;;;9.23;;
13487;SDS011;6816;48.506;9.050;2022-12-10T13:25:13;10.93;;;8.33;;
13487;SDS011;6816;48.506;9.050;2022-12-10T13:28:20;11.60;;;9.03;;
13487;SDS011;6816;48.506;9.050;2022-12-10T13:34:32;11.67;;;9.27;;
13487;SDS011;6816;48.506;9.050;2022-12-10T13:37:36;12.93;;;9.60;;
13487;SDS011;6816;48.506;9.050;2022-12-10T13:40:57;12.57;;;10.27;;
13487;SDS011;6816;48.506;9.050;2022-12-10T13:44:31;12.27;;;9.60;;
13487;SDS011;6816;48.506;9.050;2022-12-10T13:47:51;11.33;;;8.80;;
13487;SDS011;6816;48.506;9.050;2022-12-10T14:01:55;12.23;;;9.53;;
13487;SDS011;6816;48.506;9.050;2022-12-10T14:04:39;10.27;;;9.10;;
13487;SDS011;6816;48.506;9.050;2022-12-10T14:07:57;12.00;;;8.93;;
13487;SDS011;6816;48.506;9.050;2022-12-10T14:11:02;12.37;;;9.93;;
13487;SDS011;6816;48.506;9.050;2022-12-10T14:14:09;12.23;;;10.10;;
13487;SDS011;6816;48.506;9.050;2022-12-10T14:17:20;10.97;;;9.17;;
13487;SDS011;6816;48.506;9.050;2022-12-10T14:20:24;13.90;;;9.83;;
13487;SDS011;6816;48.506;9.050;2022-12-10T14:23:27;13.20;;;9.80;;
13487;SDS011;6816;48.506;9.050;2022-12-10T14:26:36;12.30;;;9.60;;
13487;SDS011;6816;48.506;9.050;2022-12-10T14:29:37;13.60;;;10.77;;
13487;SDS011;6816;48.506;9.050;2022-12-10T14:32:37;13.60;;;10.47;;
13487;SDS011;6816;48.506;9.050;2022-12-10T14:35:38;13.27;;;9.67;;
13487;SDS011;6816;48.506;9.050;2022-12-10T14:38:40;12.73;;;9.60;;
13487;SDS011;6816;48.506;9.050;2022-12-10T14:41:41;13.73;;;9.33;;
13487;SDS011;6816;48.506;9.050;2022-12-10T14:44:42;11.97;;;9.27;;
13487;SDS011;6816;48.506;9.050;2022-12-10T14:47:44;12.23;;;9.27;;
13487;SDS011;6816;48.506;9.050;2022-12-10T14:50:47;11.47;;;8.40;;
13487;SDS011;6816;48.506;9.050;2022-12-10T14:53:48;12.37;;;9.37;;
13487;SDS011;6816;48.506;9.050;2022-12-10T14:56:50;11.10;;;9.03;;
13487;SDS011;6816;48.506;9.050;2022-12-10T15:00:00;12.73;;;9.60;;
13487;SDS011;6816;48.506;9.050;2022-12-10T15:03:19;11.70;;;9.27;;
13487;SDS011;6816;48.506;9.050;2022-12-10T15:06:27;11.27;;;8.97;;
13487;SDS011;6816;48.506;9.050;2022-12-10T15:09:28;11.17;;;8.83;;
13487;SDS011;6816;48.506;9.050;2022-12-10T15:12:30;10.70;;;8.30;;
13487;SDS011;6816;48.506;9.050;2022-12-10T15:15:57;11.73;;;9.20;;
13487;SDS011;6816;48.506;9.050;2022-12-10T15:19:09;12.53;;;9.03;;
13487;SDS011;6816;48.506;9.050;2022-12-10T15:22:19;11.07;;;8.60;;
13487;SDS011;6816;48.506;9.050;2022-12-10T15:25:23;10.83;;;8.23;;
13487;SDS011;6816;48.506;9.050;2022-12-10T15:28:29;11.60;;;9.30;;
13487;SDS011;6816;48.506;9.050;2022-12-10T15:31:34;12.07;;;8.83;;
13487;SDS011;6816;48.506;9.050;2022-12-10T15:34:38;12.37;;;8.70;;
13487;SDS011;6816;48.506;9.050;2022-12-10T15:37:42;11.17;;;8.27;;
13487;SDS011;6816;48.506;9.050;2022-12-10T15:40:45;10.23;;;8.27;;
13487;SDS011;6816;48.506;9.050;2022-12-10T15:43:51;12.13;;;9.10;;
13487;SDS011;6816;48.506;9.050;2022-12-10T15:46:58;13.47;;;9.23;;
13487;SDS011;6816;48.506;9.050;2022-12-10T15:50:01;11.77;;;8.73;;
13487;SDS011;6816;48.506;9.050;2022-12-10T15:53:02;12.80;;;9.67;;
13487;SDS011;6816;48.506;9.050;2022-12-10T15:56:03;12.10;;;9.27;;
13487;SDS011;6816;48.506;9.050;2022-12-10T15:59:04;11.73;;;8.97;;
13487;SDS011;6816;48.506;9.050;2022-12-10T16:02:10;12.10;;;9.10;;
13487;SDS011;6816;48.506;9.050;2022-12-10T16:08:26;11.63;;;8.97;;
13487;SDS011;6816;48.506;9.050;2022-12-10T16:11:28;11.97;;;9.30;;
13487;SDS011;6816;48.506;9.050;2022-12-10T16:14:28;12.23;;;9.43;;
13487;SDS011;6816;48.506;9.050;2022-12-10T16:17:29;13.10;;;9.40;;
13487;SDS011;6816;48.506;9.050;2022-12-10T16:20:30;13.83;;;10.27;;
13487;SDS011;6816;48.506;9.050;2022-12-10T16:23:32;12.10;;;9.53;;
13487;SDS011;6816;48.506;9.050;2022-12-10T16:26:33;12.27;;;9.73;;
13487;SDS011;6816;48.506;9.050;2022-12-10T16:29:34;13.73;;;9.70;;
13487;SDS011;6816;48.506;9.050;2022-12-10T16:32:35;12.80;;;9.77;;
13487;SDS011;6816;48.506;9.050;2022-12-10T16:35:36;12.70;;;9.30;;
13487;SDS011;6816;48.506;9.050;2022-12-10T16:38:37;12.47;;;9.97;;
13487;SDS011;6816;48.506;9.050;2022-12-10T16:41:38;13.83;;;9.77;;
13487;SDS011;6816;48.506;9.050;2022-12-10T16:44:38;12.10;;;9.37;;
13487;SDS011;6816;48.506;9.050;2022-12-10T16:47:39;12.07;;;9.37;;
13487;SDS011;6816;48.506;9.050;2022-12-10T16:50:40;10.93;;;8.47;;
13487;SDS011;6816;48.506;9.050;2022-12-10T16:53:42;13.67;;;9.30;;
13487;SDS011;6816;48.506;9.050;2022-12-10T16:56:43;11.17;;;8.87;;
13487;SDS011;6816;48.506;9.050;2022-12-10T16:59:43;12.57;;;9.50;;
13487;SDS011;6816;48.506;9.050;2022-12-10T17:02:44;11.50;;;8.43;;
13487;SDS011;6816;48.506;9.050;2022-12-10T17:05:45;13.93;;;10.07;;
13487;SDS011;6816;48.506;9.050;2022-12-10T17:08:46;12.03;;;8.57;;
13487;SDS011;6816;48.506;9.050;2022-12-10T17:11:47;14.70;;;9.63;;
13487;SDS011;6816;48.506;9.050;2022-12-10T17:14:52;13.47;;;9.03;;
13487;SDS011;6816;48.506;9.050;2022-12-10T17:17:53;12.03;;;9.13;;
13487;SDS011;6816;48.506;9.050;2022-12-10T17:20:53;12.40;;;8.87;;
13487;SDS011;6816;48.506;9.050;2022-12-10T17:23:54;10.70;;;8.37;;
13487;SDS011;6816;48.506;9.050;2022-12-10T17:26:55;10.23;;;8.07;;
13487;SDS011;6816;48.506;9.050;2022-12-10T17:30:01;11.00;;;8.10;;
13487;SDS011;6816;48.506;9.050;2022-12-10T17:33:03;11.90;;;9.23;;
13487;SDS011;6816;48.506;9.050;2022-12-10T17:36:04;12.43;;;9.33;;
13487;SDS011;6816;48.506;9.050;2022-12-10T17:39:05;11.93;;;8.83;;
13487;SDS011;6816;48.506;9.050;2022-12-10T17:42:08;11.67;;;9.33;;
13487;SDS011;6816;48.506;9.050;2022-12-10T17:45:13;11.83;;;8.87;;
13487;SDS011;6816;48.506;9.050;2022-12-10T17:48:16;12.07;;;8.87;;
13487;SDS011;6816;48.506;9.050;2022-12-10T17:51:18;12.57;;;8.90;;
13487;SDS011;6816;48.506;9.050;2022-12-10T17:54:19;12.87;;;10.33;;
13487;SDS011;6816;48.506;9.050;2022-12-10T17:57:20;12.20;;;9.80;;
13487;SDS011;6816;48.506;9.050;2022-12-10T18:00:22;11.73;;;8.97;;
13487;SDS011;6816;48.506;9.050;2022-12-10T18:03:24;11.97;;;9.33;;
13487;SDS011;6816;48.506;9.050;2022-12-10T18:06:25;13.50;;;9.77;;
13487;SDS011;6816;48.506;9.050;2022-12-10T18:09:27;11.87;;;9.47;;
13487;SDS011;6816;48.506;9.050;2022-12-10T18:12:28;11.33;;;8.97;;
13487;SDS011;6816;48.506;9.050;2022-12-10T18:15:29;12.27;;;8.90;;
13487;SDS011;6816;48.506;9.050;2022-12-10T18:18:29;11.13;;;8.53;;
13487;SDS011;6816;48.506;9.050;2022-12-10T18:21:30;11.73;;;8.93;;
13487;SDS011;6816;48.506;9.050;2022-12-10T18:24:31;14.67;;;9.13;;
13487;SDS011;6816;48.506;9.050;2022-12-10T18:27:31;10.13;;;8.07;;
13487;SDS011;6816;48.506;9.050;2022-12-10T18:30:32;10.80;;;8.00;;
13487;SDS011;6816;48.506;9.050;2022-12-10T18:33:36;9.87;;;7.97;;
13487;SDS011;6816;48.506;9.050;2022-12-10T18:36:40;11.40;;;9.23;;
13487;SDS011;6816;48.506;9.050;2022-12-10T18:39:41;12.17;;;9.00;;
13487;SDS011;6816;48.506;9.050;2022-12-10T18:42:42;11.73;;;8.87;;
13487;SDS011;6816;48.506;9.050;2022-12-10T18:45:43;10.53;;;8.40;;
13487;SDS011;6816;48.506;9.050;2022-12-10T18:48:43;11.90;;;8.63;;
13487;SDS011;6816;48.506;9.050;2022-12-10T18:51:44;11.07;;;8.23;;
13487;SDS011;6816;48.506;9.050;2022-12-10T18:54:45;11.43;;;8.70;;
13487;SDS011;6816;48.506;9.050;2022-12-10T18:57:45;9.67;;;7.83;;
13487;SDS011;6816;48.506;9.050;2022-12-10T19:00:46;9.87;;;8.00;;
13487;SDS011;6816;48.506;9.050;2022-12-10T19:03:47;10.37;;;7.70;;
13487;SDS011;6816;48.506;9.050;2022-12-10T19:06:48;10.37;;;8.30;;
13487;SDS011;6816;48.506;9.050;2022-12-10T19:09:49;12.00;;;8.77;;
13487;SDS011;6816;48.506;9.050;2022-12-10T19:12:51;11.47;;;8.93;;
13487;SDS011;6816;48.506;9.050;2022-12-10T19:15:52;10.87;;;8.70;;
13487;SDS011;6816;48.506;9.050;2022-12-10T19:18:53;13.07;;;9.93;;
13487;SDS011;6816;48.506;9.050;2022-12-10T19:21:54;10.90;;;8.93;;
13487;SDS011;6816;48.506;9.050;2022-12-10T19:24:55;11.87;;;8.43;;
13487;SDS011;6816;48.506;9.050;2022-12-10T19:27:56;11.83;;;8.60;;
13487;SDS011;6816;48.506;9.050;2022-12-10T19:30:56;10.97;;;8.63;;
13487;SDS011;6816;48.506;9.050;2022-12-10T19:33:57;11.30;;;8.60;;
13487;SDS011;6816;48.506;9.050;2022-12-10T19:36:57;11.70;;;8.73;;
13487;SDS011;6816;48.506;9.050;2022-12-10T19:39:59;13.50;;;9.90;;
13487;SDS011;6816;48.506;9.050;2022-12-10T19:42:59;11.73;;;8.83;;
13487;SDS011;6816;48.506;9.050;2022-12-10T19:46:00;13.33;;;9.63;;